Flight Track Log - Related Links

Times and Time Zones

All times are in EDT time to prevent confusion due to time zone crossing. See the ASQ4209 flight status page for this flight to view local times or setup timezone preferences in your user account.

Time Position Orientation Groundspeed Altitude Reporting Facility
EDT Latitude Longitude Course Direction KTS MPH feet Rate Location/Type
Fri 10:33:16 PM 29.9767 -95.3008 35° Northeast 200 230 600  Level Houston Center
Fri 10:34:35 PM 30.0439 -95.2564 30° Northeast 275 316 2,000 1,179 Climbing Houston Center
Fri 10:35:08 PM 30.0756 -95.2403 24° Northeast 261 300 2,800 2,164 Climbing Houston Center
Fri 10:35:36 PM 30.1200 -95.2158 25° Northeast 288 331 4,200 2,262 Climbing Houston Center
Fri 10:36:00 PM 30.3554 -95.0357 35° Northeast  Level FlightAware Approximate
Fri 10:36:09 PM 30.1478 -95.2017 24° Northeast 280 322 5,100  Level Houston Center
Fri 10:37:00 PM 30.4449 -94.9551 41° Northeast  Level FlightAware Approximate
Fri 10:37:10 PM 30.2139 -95.1506 34° Northeast 283 326 6,900  Level Houston Center
Fri 10:38:00 PM 30.5408 -94.8907 35° Northeast  Level FlightAware Approximate
Fri 10:38:11 PM 30.2803 -95.0969 35° Northeast 290 334 8,600  Level Houston Center
Fri 10:39:12 PM 30.3469 -95.0414 36° Northeast 293 337 10,500 1,672 Climbing Houston Center
Fri 10:40:13 PM 30.4308 -94.9722 35° Northeast 306 352 12,000 1,377 Climbing Houston Center
Fri 10:41:14 PM 30.5086 -94.9128 33° Northeast 319 367 13,300 1,279 Climbing Houston Center
Fri 10:42:15 PM 30.5872 -94.8536 33° Northeast 332 382 14,600 1,082 Climbing Houston Center
Fri 10:43:16 PM 30.6703 -94.7906 33° Northeast 354 407 15,500 934 Climbing Houston Center
Fri 10:44:17 PM 30.7539 -94.7256 34° Northeast 364 419 16,500 934 Climbing Houston Center
Fri 10:45:18 PM 30.8403 -94.6600 33° Northeast 371 427 17,400 903 Climbing Houston Center
Fri 10:46:10 PM 30.9108 -94.6072 33° Northeast 371 427 18,200 911 Climbing Fort Worth Center
Fri 10:47:10 PM 30.9989 -94.5392 34° Northeast 371 427 19,100 900 Climbing Fort Worth Center
Fri 10:48:10 PM 31.0872 -94.4686 34° Northeast 371 427 20,000 1,000 Climbing Fort Worth Center
Fri 10:49:10 PM 31.1856 -94.3950 33° Northeast 371 427 21,100 1,050 Climbing Fort Worth Center
Fri 10:50:10 PM 31.2778 -94.3242 33° Northeast 383 441 22,100 950 Climbing Fort Worth Center
Fri 10:51:10 PM 31.3681 -94.2531 34° Northeast 383 441 23,000 900 Climbing Fort Worth Center
Fri 10:52:10 PM 31.4622 -94.1792 34° Northeast 388 447 23,900 950 Climbing Fort Worth Center
Fri 10:53:10 PM 31.5522 -94.1078 34° Northeast 388 447 24,900 950 Climbing Fort Worth Center
Fri 10:54:10 PM 31.6442 -94.0386 33° Northeast 388 447 25,800 900 Climbing Fort Worth Center
Fri 10:55:10 PM 31.7364 -93.9692 33° Northeast 388 447 26,700 950 Climbing Fort Worth Center
Fri 10:56:10 PM 31.8261 -93.8975 34° Northeast 383 441 27,700 950 Climbing Fort Worth Center
Fri 10:57:10 PM 31.9200 -93.8206 35° Northeast 388 447 28,600 900 Climbing Fort Worth Center
Fri 10:58:10 PM 32.0119 -93.7483 34° Northeast 388 447 29,500 950 Climbing Fort Worth Center
Fri 10:59:10 PM 32.1036 -93.6758 34° Northeast 388 447 30,500 900 Climbing Fort Worth Center
Fri 11:00:10 PM 32.1850 -93.6039 37° Northeast 388 447 31,300 850 Climbing Fort Worth Center
Fri 11:01:10 PM 32.2789 -93.5311 33° Northeast 394 453 32,200 950 Climbing Fort Worth Center
Fri 11:02:10 PM 32.3725 -93.4558 34° Northeast 394 453 33,200 950 Climbing Fort Worth Center
Fri 11:03:10 PM 32.4642 -93.3828 34° Northeast 394 453 34,100 900 Climbing Fort Worth Center
Fri 11:04:10 PM 32.5556 -93.3097 34° Northeast 394 453 35,000 450 Climbing Fort Worth Center
Fri 11:05:10 PM 32.6514 -93.2339 34° Northeast 394 453 35,000  Level Fort Worth Center
Fri 11:06:10 PM 32.7486 -93.1528 35° Northeast 407 468 35,000  Level Fort Worth Center
Fri 11:07:10 PM 32.8525 -93.0736 33° Northeast 420 483 35,000  Level Fort Worth Center
Fri 11:08:10 PM 32.9561 -92.9894 34° Northeast 430 495 35,000  Level Fort Worth Center
Fri 11:09:10 PM 33.0614 -92.9025 35° Northeast 449 517 35,000  Level Fort Worth Center
Fri 11:10:10 PM 33.1628 -92.8178 35° Northeast 449 517 35,000  Level Fort Worth Center
Fri 11:11:56 PM 33.3211 -92.6469 42° Northeast 444 511 35,000  Level Memphis Center
Fri 11:12:56 PM 33.3983 -92.5319 51° Northeast 438 504 35,000  Level Memphis Center
Fri 11:13:56 PM 33.4753 -92.4192 51° Northeast 438 504 35,000  Level Memphis Center
Fri 11:14:56 PM 33.5461 -92.3064 53° Northeast 438 504 35,000  Level Memphis Center
Fri 11:15:56 PM 33.6231 -92.1908 51° Northeast 433 498 35,000  Level Memphis Center
Fri 11:16:56 PM 33.6956 -92.0750 53° Northeast 433 498 35,000  Level Memphis Center
Fri 11:17:56 PM 33.7744 -91.9592 51° Northeast 433 498 35,000  Level Memphis Center
Fri 11:18:56 PM 33.8531 -91.8381 52° Northeast 443 510 35,000  Level Memphis Center
Fri 11:19:56 PM 33.9294 -91.7167 53° Northeast 449 517 35,000  Level Memphis Center
Fri 11:20:56 PM 34.0039 -91.5950 54° Northeast 449 517 35,000  Level Memphis Center
Fri 11:21:56 PM 34.0844 -91.4708 52° Northeast 457 526 35,000  Level Memphis Center
Fri 11:22:56 PM 34.1625 -91.3511 52° Northeast 457 526 35,000  Level Memphis Center
Fri 11:23:56 PM 34.2450 -91.2164 53° Northeast 457 526 35,000  Level Memphis Center
Fri 11:24:56 PM 34.3250 -91.0967 51° Northeast 457 526 35,000  Level Memphis Center
Fri 11:25:56 PM 34.3986 -90.9714 55° Northeast 457 526 35,000  Level Memphis Center
Fri 11:26:56 PM 34.4764 -90.8536 51° Northeast 451 519 35,000  Level Memphis Center
Fri 11:27:56 PM 34.5542 -90.7278 53° Northeast 458 527 35,000  Level Memphis Center
Fri 11:28:56 PM 34.6336 -90.6044 52° Northeast 458 527 35,000  Level Memphis Center
Fri 11:29:56 PM 34.7069 -90.4833 54° Northeast 458 527 35,000  Level Memphis Center
Fri 11:30:56 PM 34.7842 -90.3647 52° Northeast 452 520 35,000  Level Memphis Center
Fri 11:31:56 PM 34.8425 -90.2256 63° Northeast 458 527 35,000  Level Memphis Center
Fri 11:32:56 PM 34.8714 -90.0889 76° East 447 514 35,000  Level Memphis Center
Fri 11:33:56 PM 34.9022 -89.9367 76° East 458 527 35,000  Level Memphis Center
Fri 11:34:56 PM 34.9267 -89.7569 81° East 468 539 35,000  Level Memphis Center
Fri 11:35:56 PM 34.9633 -89.5994 74° East 473 544 35,000  Level Memphis Center
Fri 11:36:56 PM 34.9914 -89.4469 77° East 465 535 35,000  Level Memphis Center
Fri 11:37:56 PM 35.0214 -89.2922 77° East 465 535 35,000  Level Memphis Center
Fri 11:38:56 PM 35.0492 -89.1369 78° East 465 535 35,000  Level Memphis Center
Fri 11:39:56 PM 35.0789 -88.9869 76° East 465 535 35,000  Level Memphis Center
Fri 11:40:56 PM 35.1044 -88.8444 78° East 470 541 35,000  Level Memphis Center
Fri 11:41:56 PM 35.1317 -88.6939 77° East 465 535 35,000  Level Memphis Center
Fri 11:42:56 PM 35.1567 -88.5386 79° East 460 529 35,000  Level Memphis Center
Fri 11:43:56 PM 35.1878 -88.3931 75° East 453 521 35,000  Level Memphis Center
Fri 11:44:56 PM 35.2144 -88.2400 78° East 453 521 35,000  Level Memphis Center
Fri 11:45:56 PM 35.2408 -88.0842 78° East 453 521 35,000  Level Memphis Center
Fri 11:46:56 PM 35.2672 -87.9333 78° East 453 521 35,000  Level Memphis Center
Fri 11:47:56 PM 35.2956 -87.7800 77° East 453 521 35,000  Level Memphis Center
Fri 11:48:56 PM 35.3214 -87.6239 78° East 453 521 35,000  Level Memphis Center
Fri 11:49:56 PM 35.3492 -87.4653 78° East 459 528 35,000  Level Memphis Center
Fri 11:50:56 PM 35.3767 -87.3089 78° East 464 534 35,000  Level Memphis Center
Fri 11:51:56 PM 35.4056 -87.1322 79° East 473 544 35,000 -300 Level Memphis Center
Fri 11:52:56 PM 35.4306 -86.9758 79° East 468 539 34,400 -850 Descending Memphis Center
Fri 11:53:56 PM 35.4553 -86.8192 79° East 468 539 33,300 -1,050 Descending Memphis Center
Fri 11:54:56 PM 35.4839 -86.6575 78° East 473 544 32,300 -900 Descending Memphis Center
Fri 11:55:56 PM 35.5067 -86.5136 79° East 467 537 31,500 -950 Descending Memphis Center
Fri 11:56:56 PM 35.5311 -86.3569 79° East 467 537 30,400 -1,150 Descending Memphis Center
Fri 11:57:56 PM 35.5589 -86.1897 78° East 467 537 29,200 -1,100 Descending Memphis Center
Fri 11:59:56 PM 35.6064 -85.8856 79° East 457 526 27,100 -1,433 Descending Atlanta Center
Sat 12:00:56 AM 35.6317 -85.7250 79° East 462 532 24,900 -2,400 Descending Atlanta Center
Sat 12:01:56 AM 35.6567 -85.5747 78° East 462 532 22,300 -1,950 Descending Atlanta Center
Sat 12:02:56 AM 35.6792 -85.4244 80° East 456 525 21,000 -650 Descending Atlanta Center
Sat 12:03:56 AM 35.7017 -85.2789 79° East 445 512 21,000 -700 Level Atlanta Center
Sat 12:04:56 AM 35.7239 -85.1336 79° East 440 506 19,600 -1,800 Descending Atlanta Center
Sat 12:05:56 AM 35.7439 -84.9906 80° East 435 501 17,400 -2,300 Descending Atlanta Center
Sat 12:06:56 AM 35.7656 -84.8525 79° East 417 480 15,000 -2,450 Descending Atlanta Center
Sat 12:07:56 AM 35.7853 -84.7172 80° East 412 474 12,500 -1,950 Descending Atlanta Center
Sat 12:08:56 AM 35.8047 -84.5944 79° East 389 448 11,100 -750 Descending Atlanta Center
Sat 12:09:56 AM 35.8197 -84.4919 80° East 359 413 11,000 -850 Descending Atlanta Center
Sat 12:10:56 AM 35.8158 -84.3997 93° East 302 348 9,400 -2,050 Descending Atlanta Center
Sat 12:11:56 AM 35.8056 -84.3128 98° East 262 302 6,900 -2,500 Descending Atlanta Center
Sat 12:12:56 AM 35.7911 -84.2308 102° East 251 289 4,400 -2,050 Descending Atlanta Center
Sat 12:13:56 AM 35.7578 -84.1667 123° Southeast 234 269 2,800 -950 Descending Atlanta Center
Sat 12:14:56 AM 35.7411 -84.1000 107° East 212 244 2,500 -400 Descending Atlanta Center
Sat 12:15:56 AM 35.7664 -84.0439 61° Northeast 177 204 2,000 -700 Descending Atlanta Center
Sat 12:16:56 AM 35.7956 -84.0106 43° Northeast 148 170 1,100 -900 Descending Atlanta Center

Login

Don't have an account? Register now (free) for customized features, flight alerts, and more!